Time;durP1;ratioP1;P1;durP2;ratioP2;P2;SDS_P1;SDS_P2;PMS_P1;PMS_P2;Temp;Humidity;BMP_temperature;BMP_pressure;BME280_temperature;BME280_humidity;BME280_pressure;Samples;Min_cycle;Max_cycle;Signal;HPM_P1;HPM_P2
2022/09/22 00:01:36;;;;;;;5.10;3.40;;;;;;;9.53;100.00;102574.53;4976762;28;20057;-77
2022/09/22 00:04:11;;;;;;;6.97;3.35;;;;;;;9.52;100.00;102579.72;4988080;28;20050;-77
2022/09/22 00:06:43;;;;;;;6.35;3.00;;;;;;;9.52;100.00;102585.00;4977539;28;20526;-77
2022/09/22 00:09:15;;;;;;;4.47;2.80;;;;;;;9.52;100.00;102577.09;4988406;28;20402;-77
2022/09/22 00:11:46;;;;;;;6.82;4.07;;;;;;;9.50;100.00;102578.78;4961143;28;20319;-77
2022/09/22 00:14:22;;;;;;;5.60;3.50;;;;;;;9.49;100.00;102585.78;5005162;28;20061;-77
2022/09/22 00:16:53;;;;;;;4.75;3.33;;;;;;;9.49;100.00;102582.22;4961283;28;20038;-77
2022/09/22 00:19:34;;;;;;;4.32;3.10;;;;;;;9.47;100.00;102571.69;4989806;28;20411;-77
2022/09/22 00:22:04;;;;;;;5.38;3.50;;;;;;;9.44;100.00;102573.31;4963545;28;20365;-77
2022/09/22 00:24:33;;;;;;;10.13;3.67;;;;;;;9.42;100.00;102575.88;4999498;28;20144;-77
2022/09/22 00:27:02;;;;;;;5.25;3.13;;;;;;;9.40;100.00;102572.31;5000354;28;20046;-77
2022/09/22 00:29:30;;;;;;;6.97;3.03;;;;;;;9.39;100.00;102572.25;5000236;28;20076;-77
2022/09/22 00:32:00;;;;;;;5.38;3.10;;;;;;;9.38;100.00;102575.72;4957034;28;20046;-77
2022/09/22 00:34:34;;;;;;;7.05;3.22;;;;;;;9.36;100.00;102568.66;5009200;28;20287;-77
2022/09/22 00:37:03;;;;;;;6.97;2.97;;;;;;;9.36;100.00;102570.41;4978149;28;20071;-77
2022/09/22 00:39:31;;;;;;;6.30;3.08;;;;;;;9.35;100.00;102566.84;4999490;28;20049;-77
2022/09/22 00:42:00;;;;;;;7.55;3.45;;;;;;;9.34;100.00;102572.97;4997714;28;20045;-77
2022/09/22 00:44:28;;;;;;;5.57;3.10;;;;;;;9.34;100.00;102562.44;4982702;28;20042;-77
2022/09/22 00:46:56;;;;;;;4.65;3.22;;;;;;;9.32;100.00;102561.50;4995704;28;20054;-77
2022/09/22 00:49:57;;;;;;;8.35;3.70;;;;;;;9.30;100.00;102560.56;4974368;28;20050;-77
2022/09/22 00:53:14;;;;;;;3.80;3.08;;;;;;;9.28;100.00;102550.78;4975468;28;20498;-77
2022/09/22 00:55:50;;;;;;;5.47;2.80;;;;;;;9.26;100.00;102553.41;4924947;28;20043;-77
2022/09/22 00:58:26;;;;;;;5.68;3.03;;;;;;;9.25;100.00;102548.97;4978707;28;20049;-77
2022/09/22 01:00:55;;;;;;;5.07;2.95;;;;;;;9.24;100.00;102546.28;4968660;28;20054;-77
2022/09/22 01:03:25;;;;;;;5.93;3.40;;;;;;;9.23;100.00;102550.66;4980365;28;20506;-76
2022/09/22 01:06:01;;;;;;;2.78;2.58;;;;;;;9.22;100.00;102546.22;5000789;28;20084;-77
2022/09/22 01:08:30;;;;;;;6.63;3.13;;;;;;;9.20;100.00;102542.63;4983483;28;20055;-77
2022/09/22 01:10:59;;;;;;;4.00;2.90;;;;;;;9.18;100.00;102539.06;5003980;28;20415;-77
2022/09/22 01:13:59;;;;;;;4.00;2.97;;;;;;;9.17;100.00;102539.91;4995916;28;20054;-76
2022/09/22 01:16:55;;;;;;;7.55;3.40;;;;;;;9.15;100.00;102531.06;4972580;28;20085;-77
2022/09/22 01:19:45;;;;;;;5.38;3.28;;;;;;;9.12;100.00;102536.22;4928830;28;20050;-77
2022/09/22 01:22:45;;;;;;;6.30;3.40;;;;;;;9.08;100.00;102536.94;4985053;28;20522;-77
2022/09/22 01:25:44;;;;;;;8.45;3.97;;;;;;;9.04;100.00;102533.31;4978257;28;20061;-77
2022/09/22 01:28:44;;;;;;;6.70;3.83;;;;;;;9.01;100.00;102532.28;4983551;28;20042;-77
2022/09/22 01:31:37;;;;;;;5.93;3.45;;;;;;;8.98;100.00;102531.34;4980962;28;20046;-77
2022/09/22 01:34:36;;;;;;;8.35;4.35;;;;;;;8.98;100.00;102530.47;4989828;28;20053;-77
2022/09/22 01:37:19;;;;;;;4.60;3.50;;;;;;;8.95;100.00;102520.72;4992135;28;20061;-77
2022/09/22 01:39:52;;;;;;;5.80;3.80;;;;;;;8.93;100.00;102518.88;4979471;28;20159;-77
2022/09/22 01:42:44;;;;;;;7.80;3.70;;;;;;;8.92;100.00;102519.69;4995610;28;20046;-77
2022/09/22 01:45:23;;;;;;;9.07;3.70;;;;;;;8.89;100.00;102523.13;4981620;28;20053;-77
2022/09/22 01:47:54;;;;;;;5.25;3.58;;;;;;;8.87;100.00;102521.28;5007184;28;20065;-77
2022/09/22 01:50:27;;;;;;;5.00;3.22;;;;;;;8.85;100.00;102518.59;4952288;28;20042;-77
2022/09/22 01:52:59;;;;;;;3.92;3.35;;;;;;;8.84;100.00;102515.91;5000587;28;20045;-77
2022/09/22 01:55:35;;;;;;;7.65;3.67;;;;;;;8.81;100.00;102516.69;4986250;28;20050;-77
2022/09/22 01:58:17;;;;;;;11.77;4.10;;;;;;;8.78;100.00;102514.81;4991002;28;20053;-77
2022/09/22 02:00:55;;;;;;;6.85;3.67;;;;;;;8.76;100.00;102505.09;4998877;28;20195;-77
2022/09/22 02:03:39;;;;;;;6.68;4.10;;;;;;;8.73;100.00;102510.25;5003904;28;20046;-76
2022/09/22 02:06:16;;;;;;;4.00;3.60;;;;;;;8.69;100.00;102500.44;4976673;28;20070;-77
2022/09/22 02:08:56;;;;;;;5.68;4.00;;;;;;;8.67;100.00;102502.13;4979606;28;20068;-77
2022/09/22 02:11:24;;;;;;;4.85;3.90;;;;;;;8.64;100.00;102502.94;4997045;28;20054;-77
2022/09/22 02:13:53;;;;;;;9.50;4.47;;;;;;;8.62;100.00;102504.59;4985195;28;20053;-77
2022/09/22 02:16:23;;;;;;;8.43;4.55;;;;;;;8.59;100.00;102505.34;4989330;28;20060;-77
2022/09/22 02:18:54;;;;;;;7.13;4.17;;;;;;;8.54;100.00;102506.94;4983691;28;20057;-77
2022/09/22 02:21:25;;;;;;;4.05;3.63;;;;;;;8.52;100.00;102505.06;4972147;28;20301;-77
2022/09/22 02:23:55;;;;;;;6.30;4.25;;;;;;;8.48;100.00;102505.78;4984100;28;20046;-77
2022/09/22 02:26:26;;;;;;;8.40;3.60;;;;;;;8.46;100.00;102503.09;4967472;28;20395;-77
2022/09/22 02:29:06;;;;;;;6.35;4.25;;;;;;;8.46;100.00;102500.47;4995734;28;20395;-77
2022/09/22 02:31:37;;;;;;;8.80;4.05;;;;;;;8.45;100.00;102503.03;4977713;28;20183;-77
2022/09/22 02:34:07;;;;;;;8.02;3.95;;;;;;;8.45;100.00;102505.66;4988535;28;20049;-77
2022/09/22 02:36:41;;;;;;;6.35;3.65;;;;;;;8.42;100.00;102500.31;4983223;28;20058;-77
2022/09/22 02:39:17;;;;;;;13.55;4.20;;;;;;;8.38;100.00;102496.63;4972119;28;20053;-77
2022/09/22 02:42:13;;;;;;;7.63;4.07;;;;;;;8.37;100.00;102500.09;5003249;28;20762;-77
2022/09/22 02:44:53;;;;;;;5.47;4.50;;;;;;;8.33;100.00;102496.44;4968234;28;20161;-77
2022/09/22 02:47:43;;;;;;;5.78;4.00;;;;;;;8.31;100.00;102491.97;5000622;28;20049;-77
2022/09/22 02:50:16;;;;;;;5.25;3.45;;;;;;;8.28;100.00;102491.84;5005569;28;20050;-77
2022/09/22 02:52:44;;;;;;;5.40;4.15;;;;;;;8.25;100.00;102491.75;4982759;28;20300;-77
2022/09/22 02:55:16;;;;;;;6.90;3.80;;;;;;;8.21;100.00;102485.47;4933051;28;20058;-77
2022/09/22 02:57:44;;;;;;;5.72;4.20;;;;;;;8.20;100.00;102483.66;4983222;28;20602;-77
2022/09/22 03:00:13;;;;;;;7.78;3.95;;;;;;;8.16;100.00;102477.41;4977994;28;20065;-77
2022/09/22 03:02:42;;;;;;;9.13;4.38;;;;;;;8.14;100.00;102479.06;4985419;28;20050;-77
2022/09/22 03:05:11;;;;;;;11.52;4.32;;;;;;;8.11;100.00;102478.97;5010417;28;20042;-77
2022/09/22 03:07:39;;;;;;;6.43;3.90;;;;;;;8.10;100.00;102478.91;4989438;28;20279;-77
2022/09/22 03:10:08;;;;;;;8.18;4.60;;;;;;;8.09;100.00;102470.16;4942964;28;20048;-77
2022/09/22 03:12:41;;;;;;;9.43;3.92;;;;;;;8.08;100.00;102476.22;4996144;28;20049;-77
2022/09/22 03:15:29;;;;;;;8.02;4.13;;;;;;;8.08;100.00;102473.59;4997361;28;20038;-77
2022/09/22 03:17:58;;;;;;;8.63;5.07;;;;;;;8.06;100.00;102466.50;5006531;28;20065;-77
2022/09/22 03:20:26;;;;;;;10.55;4.72;;;;;;;8.06;100.00;102464.75;4960620;28;20499;-77
2022/09/22 03:22:55;;;;;;;5.20;4.05;;;;;;;8.06;100.00;102463.88;5003363;28;20060;-77
2022/09/22 03:25:23;;;;;;;11.95;4.53;;;;;;;8.06;100.00;102463.88;4967649;28;20053;-77
2022/09/22 03:27:52;;;;;;;7.47;4.22;;;;;;;8.04;100.00;102463.81;4992191;28;20051;-77
2022/09/22 03:30:20;;;;;;;7.45;4.47;;;;;;;8.05;100.00;102462.94;4979339;28;20404;-77
2022/09/22 03:32:48;;;;;;;6.25;4.20;;;;;;;8.03;100.00;102464.63;4976338;28;20259;-77
2022/09/22 03:35:17;;;;;;;8.02;4.75;;;;;;;8.03;100.00;102459.38;4982174;28;20372;-77
2022/09/22 03:37:45;;;;;;;7.18;4.45;;;;;;;8.02;100.00;102457.59;4982018;28;20462;-77
2022/09/22 03:40:14;;;;;;;9.65;4.93;;;;;;;8.02;100.00;102457.59;4980884;28;20507;-77
2022/09/22 03:42:43;;;;;;;13.70;6.13;;;;;;;8.01;100.00;102455.78;4964202;28;20045;-77
2022/09/22 03:45:11;;;;;;;10.40;6.13;;;;;;;8.00;100.00;102459.28;5003766;28;20407;-77
2022/09/22 03:47:40;;;;;;;6.93;5.30;;;;;;;7.99;100.00;102452.22;4975827;28;20050;-77
2022/09/22 03:50:09;;;;;;;8.23;4.93;;;;;;;7.98;100.00;102460.94;4992830;28;20046;-77
2022/09/22 03:52:38;;;;;;;7.28;5.28;;;;;;;7.97;100.00;102452.16;4994362;28;20298;-77
2022/09/22 03:55:08;;;;;;;8.25;5.40;;;;;;;7.96;100.00;102452.13;4987882;28;20045;-77
2022/09/22 03:57:38;;;;;;;9.07;5.13;;;;;;;7.95;100.00;102455.56;4948013;28;20255;-77
2022/09/22 04:00:07;;;;;;;6.60;4.35;;;;;;;7.93;100.00;102452.00;4974716;28;20118;-77
2022/09/22 04:02:42;;;;;;;6.90;4.65;;;;;;;7.94;100.00;102453.75;4961577;28;20069;-77
2022/09/22 04:05:10;;;;;;;10.10;4.80;;;;;;;7.94;100.00;102452.06;4987386;28;20051;-77
2022/09/22 04:07:39;;;;;;;5.50;4.60;;;;;;;7.93;100.00;102459.84;4975849;28;20053;-77
2022/09/22 04:10:08;;;;;;;7.85;5.38;;;;;;;7.92;100.00;102447.56;4965851;28;20038;-77
2022/09/22 04:12:36;;;;;;;10.38;4.82;;;;;;;7.91;100.00;102453.66;4953354;28;20414;-77
2022/09/22 04:15:05;;;;;;;7.18;4.85;;;;;;;7.90;100.00;102451.84;4989513;28;20042;-77
2022/09/22 04:17:33;;;;;;;7.53;5.35;;;;;;;7.89;100.00;102447.44;4996347;28;20073;-77
2022/09/22 04:20:04;;;;;;;8.30;4.63;;;;;;;7.87;100.00;102442.13;4984929;28;20060;-77
2022/09/22 04:22:32;;;;;;;;;;;;;;;7.85;100.00;102443.81;4957023;28;20042;-77
2022/09/22 04:25:04;;;;;;;14.23;5.25;;;;;;;7.85;100.00;102448.16;4999542;28;20367;-77
2022/09/22 04:27:33;;;;;;;17.13;9.80;;;;;;;7.83;100.00;102442.84;4949937;28;20034;-77
2022/09/22 04:30:01;;;;;;;9.88;6.18;;;;;;;7.83;100.00;102444.59;5000187;28;20046;-77
2022/09/22 04:32:30;;;;;;;7.20;4.97;;;;;;;7.80;100.00;102440.97;4959030;28;20374;-77
2022/09/22 04:34:59;;;;;;;6.50;4.82;;;;;;;7.81;100.00;102445.41;4991498;28;20049;-77
2022/09/22 04:37:28;;;;;;;11.73;5.18;;;;;;;7.81;100.00;102444.53;4963381;28;20049;-77
2022/09/22 04:39:58;;;;;;;7.65;4.40;;;;;;;7.79;100.00;102436.59;4981809;28;20058;-77
2022/09/22 04:42:26;;;;;;;10.93;5.30;;;;;;;7.76;100.00;102438.19;4968512;28;20254;-77
2022/09/22 04:45:00;;;;;;;10.20;5.32;;;;;;;7.75;100.00;102439.00;4970638;28;20045;-77
2022/09/22 04:47:29;;;;;;;9.40;4.93;;;;;;;7.73;100.00;102436.34;4979728;28;20328;-76
2022/09/22 04:49:58;;;;;;;8.13;5.45;;;;;;;7.72;100.00;102429.28;4983625;28;20049;-76
2022/09/22 04:52:27;;;;;;;6.63;4.65;;;;;;;7.72;100.00;102431.03;4973119;28;20047;-77
2022/09/22 04:54:55;;;;;;;10.77;6.60;;;;;;;7.72;100.00;102434.53;4987648;28;20049;-77
2022/09/22 04:57:23;;;;;;;15.35;5.43;;;;;;;7.72;100.00;102437.16;4937209;28;20053;-77
2022/09/22 04:59:52;;;;;;;8.82;5.50;;;;;;;7.71;100.00;102439.72;4962152;28;20069;-76
2022/09/22 05:02:20;;;;;;;10.00;7.65;;;;;;;7.71;100.00;102438.00;4995863;28;20495;-77
2022/09/22 05:04:48;;;;;;;14.20;9.18;;;;;;;7.70;100.00;102435.31;4987725;28;20262;-77
2022/09/22 05:07:17;;;;;;;14.15;6.60;;;;;;;7.70;100.00;102427.44;4980019;28;20050;-77
2022/09/22 05:09:46;;;;;;;6.90;4.95;;;;;;;7.70;100.00;102436.22;4987721;28;20212;-78
2022/09/22 05:12:14;;;;;;;9.32;5.68;;;;;;;7.69;100.00;102439.66;4984704;28;20057;-77
2022/09/22 05:14:43;;;;;;;8.35;5.22;;;;;;;7.72;100.00;102431.03;4936572;28;20299;-77
2022/09/22 05:17:11;;;;;;;8.88;5.28;;;;;;;7.71;100.00;102435.41;4983512;28;20050;-79
2022/09/22 05:19:40;;;;;;;6.78;5.40;;;;;;;7.72;100.00;102439.78;4970399;28;20383;-78
2022/09/22 05:22:08;;;;;;;22.20;13.00;;;;;;;7.71;100.00;102440.63;4973828;28;20038;-79
2022/09/22 05:24:37;;;;;;;22.25;11.07;;;;;;;7.72;100.00;102442.41;4974805;28;20168;-78
2022/09/22 05:27:06;;;;;;;11.27;6.30;;;;;;;7.72;100.00;102434.53;4997700;28;20494;-78
2022/09/22 05:29:34;;;;;;;7.75;5.32;;;;;;;7.71;100.00;102440.63;4940718;28;20716;-77
2022/09/22 05:32:03;;;;;;;6.30;5.15;;;;;;;7.71;100.00;102447.59;4979584;28;20054;-79
2022/09/22 05:34:32;;;;;;;11.48;5.50;;;;;;;7.71;100.00;102440.63;4982161;28;20052;-78
2022/09/22 05:37:00;;;;;;;10.75;5.50;;;;;;;7.72;100.00;102438.91;4979996;28;20065;-77
2022/09/22 05:39:31;;;;;;;5.32;4.78;;;;;;;7.72;100.00;102446.78;4989847;28;20049;-78
2022/09/22 05:41:59;;;;;;;10.15;5.40;;;;;;;7.73;100.00;102445.91;4986192;28;20463;-78
2022/09/22 05:44:28;;;;;;;8.70;4.90;;;;;;;7.76;100.00;102444.31;4966838;28;20045;-77
2022/09/22 05:46:56;;;;;;;11.13;5.63;;;;;;;7.79;100.00;102448.81;4975061;28;20429;-78
2022/09/22 05:49:25;;;;;;;9.00;5.60;;;;;;;7.83;100.00;102445.47;4973978;28;20530;-78
2022/09/22 05:51:56;;;;;;;8.75;6.18;;;;;;;7.85;100.00;102451.69;4997688;28;20037;-78
2022/09/22 05:54:24;;;;;;;10.68;6.00;;;;;;;7.87;100.00;102454.38;4997468;28;20057;-77
2022/09/22 05:56:54;;;;;;;6.88;6.03;;;;;;;7.89;100.00;102450.97;4968877;28;20045;-78
2022/09/22 05:59:22;;;;;;;8.30;6.43;;;;;;;7.91;100.00;102451.03;4956656;28;20050;-78
2022/09/22 06:01:51;;;;;;;11.85;6.97;;;;;;;7.94;100.00;102456.38;4973601;28;20050;-78
2022/09/22 06:04:26;;;;;;;9.18;6.57;;;;;;;7.97;100.00;102449.53;4980157;28;20419;-79
2022/09/22 06:06:54;;;;;;;10.70;6.40;;;;;;;7.99;100.00;102452.22;4974361;28;20631;-78
2022/09/22 06:09:23;;;;;;;8.10;5.88;;;;;;;8.01;100.00;102445.28;4975376;28;20117;-79
2022/09/22 06:11:52;;;;;;;10.02;6.13;;;;;;;8.05;100.00;102451.56;4953021;28;20153;-78
2022/09/22 06:14:20;;;;;;;12.95;7.32;;;;;;;8.08;100.00;102444.72;4989711;28;20054;-78
2022/09/22 06:16:48;;;;;;;10.07;6.60;;;;;;;8.11;100.00;102446.53;4959291;28;20038;-78
2022/09/22 06:19:17;;;;;;;9.23;6.50;;;;;;;8.15;100.00;102440.59;4986610;28;20527;-79
2022/09/22 06:21:46;;;;;;;10.38;6.72;;;;;;;8.17;100.00;102442.44;4979795;28;20047;-79
2022/09/22 06:24:15;;;;;;;9.50;6.32;;;;;;;8.21;100.00;102443.47;4966820;28;20284;-79
2022/09/22 06:26:44;;;;;;;9.93;6.50;;;;;;;8.28;100.00;102444.56;4967461;28;20047;-78
2022/09/22 06:29:13;;;;;;;10.57;6.80;;;;;;;8.31;100.00;102442.97;4967905;28;20621;-79
2022/09/22 06:31:41;;;;;;;12.57;7.43;;;;;;;8.35;100.00;102438.72;4948977;28;20038;-78
2022/09/22 06:34:10;;;;;;;13.25;6.85;;;;;;;8.38;100.00;102447.63;4998089;28;20278;-79
2022/09/22 06:36:41;;;;;;;9.85;6.72;;;;;;;8.45;100.00;102438.28;4975433;28;20058;-79
2022/09/22 06:39:10;;;;;;;10.13;6.68;;;;;;;8.50;100.00;102441.94;4990620;28;20084;-79
2022/09/22 06:41:39;;;;;;;11.63;6.30;;;;;;;8.55;100.00;102439.50;4963287;28;20050;-79
2022/09/22 06:44:09;;;;;;;11.10;6.20;;;;;;;8.60;100.00;102435.31;4960624;28;20520;-79
2022/09/22 06:46:38;;;;;;;12.20;6.97;;;;;;;8.65;100.00;102431.13;4990986;28;20034;-78
2022/09/22 06:49:07;;;;;;;9.95;7.32;;;;;;;8.77;100.00;102428.94;4956082;28;20027;-78
2022/09/22 06:51:35;;;;;;;9.45;7.30;;;;;;;9.11;100.00;102437.09;4987660;28;20051;-78
2022/09/22 06:54:05;;;;;;;12.02;7.15;;;;;;;9.61;100.00;102435.28;4988430;28;20077;-78
2022/09/22 06:56:41;;;;;;;9.57;6.70;;;;;;;10.15;100.00;102429.97;4975485;28;20050;-78
2022/09/22 06:59:13;;;;;;;7.25;6.20;;;;;;;10.55;100.00;102427.66;4981419;28;20050;-78
2022/09/22 07:01:43;;;;;;;8.07;6.32;;;;;;;10.91;100.00;102434.78;4981921;28;20035;-78
2022/09/22 07:04:12;;;;;;;8.43;5.85;;;;;;;11.30;100.00;102424.41;4971930;28;20039;-78
2022/09/22 07:06:41;;;;;;;7.78;5.72;;;;;;;11.66;100.00;102425.25;4980755;28;20046;-78
2022/09/22 07:09:11;;;;;;;9.30;5.68;;;;;;;11.77;100.00;102426.38;4972927;28;20047;-78
2022/09/22 07:11:39;;;;;;;8.00;5.40;;;;;;;11.76;100.00;102434.28;4985634;28;20504;-79
2022/09/22 07:14:09;;;;;;;10.25;6.13;;;;;;;11.77;100.00;102426.38;4956237;28;20569;-78
2022/09/22 07:16:39;;;;;;;8.65;6.13;;;;;;;11.82;100.00;102437.09;4989751;28;20058;-77
2022/09/22 07:19:08;;;;;;;6.82;5.00;;;;;;;11.89;100.00;102428.44;4950220;28;21475;-77
2022/09/22 07:21:39;;;;;;;9.02;5.85;;;;;;;12.05;100.00;102432.34;4977201;28;20058;-78
2022/09/22 07:24:07;;;;;;;6.22;5.45;;;;;;;12.27;100.00;102424.03;4964016;28;20110;-78
2022/09/22 07:26:38;;;;;;;8.13;6.22;;;;;;;12.43;100.00;102427.00;4989024;28;20076;-77
2022/09/22 07:29:10;;;;;;;;;;;;;;;12.66;100.00;102424.81;4973071;28;20043;-79
2022/09/22 07:31:40;;;;;;;10.98;5.75;;;;;;;12.95;100.00;102429.75;4982351;28;19933;-80
2022/09/22 07:34:09;;;;;;;;;;;;;;;13.14;100.00;102431.03;4952894;28;20889;-78
2022/09/22 07:36:38;;;;;;;5.35;4.85;;;;;;;13.30;100.00;102426.88;4981167;28;19922;-77
2022/09/22 07:39:09;;;;;;;11.18;5.43;;;;;;;13.55;100.00;102421.13;4983785;28;20363;-77
2022/09/22 07:41:42;;;;;;;8.25;5.38;;;;;;;13.91;100.00;102421.69;4973976;28;20050;-77
2022/09/22 07:47:02;;;;;;;7.28;4.95;;;;;;;14.64;100.00;102416.47;4979398;28;20065;-77
2022/09/22 07:49:30;;;;;;;7.78;4.70;;;;;;;15.01;100.00;102419.53;4997504;28;20054;-77
2022/09/22 07:51:59;;;;;;;5.47;4.43;;;;;;;15.30;100.00;102413.59;4961427;28;20153;-77
2022/09/22 07:54:27;;;;;;;6.57;4.63;;;;;;;15.58;100.00;102407.63;4986528;28;20403;-79
2022/09/22 07:56:57;;;;;;;9.82;4.45;;;;;;;15.90;100.00;102412.28;4968045;28;20034;-79
2022/09/22 07:59:26;;;;;;;7.97;4.50;;;;;;;16.20;100.00;102405.38;4968031;28;20034;-77
2022/09/22 08:01:55;;;;;;;6.03;4.70;;;;;;;16.42;100.00;102405.44;4965715;28;20518;-76
2022/09/22 08:04:25;;;;;;;6.15;4.47;;;;;;;16.65;100.00;102410.84;4980985;28;20051;-76
2022/09/22 08:06:54;;;;;;;8.65;4.18;;;;;;;16.81;100.00;102406.47;4950411;28;20042;-77
2022/09/22 08:09:24;;;;;;;6.78;4.53;;;;;;;16.94;100.00;102401.19;4983997;28;20602;-77
2022/09/22 08:11:54;;;;;;;10.80;4.15;;;;;;;17.10;100.00;102409.19;4977076;28;20059;-77
2022/09/22 08:14:23;;;;;;;6.57;4.10;;;;;;;17.24;100.00;102409.19;4975399;28;20050;-77
2022/09/22 08:16:52;;;;;;;6.38;4.20;;;;;;;17.33;100.00;102417.19;4973790;28;20046;-79
2022/09/22 08:19:22;;;;;;;4.32;3.75;;;;;;;17.39;100.00;102414.53;4978333;28;20059;-77
2022/09/22 08:21:52;;;;;;;8.23;4.30;;;;;;;17.51;100.00;102418.97;4940494;28;20065;-77
2022/09/22 08:24:21;;;;;;;8.70;4.68;;;;;;;17.55;99.75;102415.41;4974014;28;20050;-76
2022/09/22 08:26:54;;;;;;;7.80;4.05;;;;;;;17.60;98.74;102413.63;4973416;28;20046;-76
2022/09/22 08:29:23;;;;;;;7.20;4.35;;;;;;;17.67;97.09;102418.03;4989778;28;20047;-78
2022/09/22 08:31:52;;;;;;;6.03;4.20;;;;;;;17.70;95.49;102419.84;4977461;28;20058;-77
2022/09/22 08:34:21;;;;;;;7.97;4.90;;;;;;;17.68;94.29;102417.16;4968515;28;20404;-77
2022/09/22 08:36:51;;;;;;;7.50;4.18;;;;;;;17.68;93.49;102414.50;4946950;28;20400;-77
2022/09/22 08:39:19;;;;;;;6.90;3.80;;;;;;;17.69;91.44;102413.63;4978754;28;20046;-77
2022/09/22 08:42:04;;;;;;;7.45;4.15;;;;;;;17.70;90.10;102410.06;4980611;28;20038;-77
2022/09/22 08:44:56;;;;;;;7.07;3.72;;;;;;;17.74;89.59;102408.28;4957955;28;20038;-77
2022/09/22 08:53:43;;;;;;;6.50;3.70;;;;;;;17.67;86.97;102407.38;4963310;28;20053;-77
2022/09/22 08:56:30;;;;;;;5.55;3.88;;;;;;;17.68;85.67;102405.63;4978758;28;20050;-76
2022/09/22 08:59:21;;;;;;;9.85;4.38;;;;;;;17.61;84.98;102409.19;4984559;28;20053;-76
2022/09/22 09:02:11;;;;;;;6.18;3.40;;;;;;;17.53;83.53;102407.41;4967776;28;20080;-78
2022/09/22 09:04:49;;;;;;;8.07;4.00;;;;;;;17.31;83.05;102408.31;4979384;28;20300;-78
2022/09/22 09:07:57;;;;;;;8.70;3.90;;;;;;;17.20;84.47;102403.00;4970282;28;20050;-80
2022/09/22 09:10:29;;;;;;;6.78;3.85;;;;;;;17.10;83.60;102411.84;4972361;28;20408;-78
2022/09/22 09:13:27;;;;;;;6.28;3.20;;;;;;;16.96;83.86;102403.84;4968559;28;20058;-78
2022/09/22 09:16:19;;;;;;;6.43;3.90;;;;;;;16.83;83.83;102407.38;4969478;28;20381;-78
2022/09/22 09:19:17;;;;;;;;;;;;;;;16.69;85.91;102392.25;4977535;28;20415;-77
2022/09/22 09:21:51;;;;;;;6.18;3.60;;;;;;;16.62;85.50;102392.22;4972409;28;19921;-77
2022/09/22 09:24:37;;;;;;;5.20;3.50;;;;;;;16.56;84.72;102398.41;4943101;28;20393;-77
2022/09/22 09:27:37;;;;;;;7.03;3.42;;;;;;;16.54;85.39;102400.16;4972408;28;20176;-77
2022/09/22 09:30:10;;;;;;;8.73;3.50;;;;;;;16.51;85.05;102390.41;4965596;28;20064;-77
2022/09/22 09:32:52;;;;;;;6.63;3.17;;;;;;;16.52;85.65;102401.91;4969744;28;20061;-77
2022/09/22 09:35:43;;;;;;;5.30;3.13;;;;;;;16.52;85.32;102394.84;4963604;28;20240;-79
2022/09/22 09:38:16;;;;;;;6.43;3.42;;;;;;;16.55;85.34;102391.31;4976699;28;20046;-78
2022/09/22 09:40:53;;;;;;;5.38;2.92;;;;;;;16.55;85.58;102399.28;4949026;28;20059;-77
2022/09/22 09:43:23;;;;;;;5.45;3.17;;;;;;;16.57;85.63;102394.84;4969028;28;20268;-77
2022/09/22 09:46:01;;;;;;;5.75;3.35;;;;;;;16.56;85.28;102393.97;4969524;28;20404;-76
2022/09/22 09:48:36;;;;;;;6.03;3.30;;;;;;;16.56;85.25;102395.75;4975102;28;20065;-77
2022/09/22 09:51:05;;;;;;;9.40;3.17;;;;;;;16.53;85.59;102387.75;4972997;28;20050;-77
2022/09/22 09:53:41;;;;;;;8.98;3.55;;;;;;;16.53;86.04;102387.75;4997550;28;20042;-78
2022/09/22 09:56:28;;;;;;;4.93;2.97;;;;;;;16.56;86.26;102390.44;4945729;28;20414;-77
2022/09/22 10:01:52;;;;;;;6.80;3.45;;;;;;;16.64;85.62;102390.44;4977536;28;20055;-77
2022/09/22 10:04:21;;;;;;;8.27;2.85;;;;;;;16.67;85.88;102387.78;4965019;28;20035;-77
2022/09/22 10:06:50;;;;;;;5.13;3.00;;;;;;;16.72;86.46;102386.91;4981777;28;20424;-77
2022/09/22 10:09:28;;;;;;;6.07;3.20;;;;;;;16.77;85.17;102379.81;4941048;28;20045;-77
2022/09/22 10:12:01;;;;;;;3.75;2.80;;;;;;;16.80;85.28;102373.59;4976201;28;20058;-78
2022/09/22 10:14:34;;;;;;;4.05;2.85;;;;;;;16.84;84.56;102372.78;4984580;28;20268;-77
2022/09/22 10:17:02;;;;;;;7.25;3.17;;;;;;;16.91;84.77;102373.66;4961626;28;20042;-79
2022/09/22 10:19:33;;;;;;;7.57;3.40;;;;;;;16.94;84.38;102371.00;4972883;28;20253;-78
2022/09/22 10:22:34;;;;;;;;;;;;;;;16.98;83.48;102370.13;5006982;28;20050;-76
2022/09/22 10:25:30;;;;;;;6.72;2.67;;;;;;;17.00;83.73;102365.69;4936572;28;19928;-77
2022/09/22 10:27:59;;;;;;;4.53;2.58;;;;;;;17.01;83.19;102363.91;4968257;28;20519;-77
2022/09/22 10:30:36;;;;;;;5.88;2.75;;;;;;;17.02;82.53;102363.91;4986957;28;20252;-77
2022/09/22 10:33:21;;;;;;;4.00;2.60;;;;;;;17.08;82.29;102366.56;4974099;28;20534;-77
2022/09/22 10:36:09;;;;;;;2.92;2.15;;;;;;;17.10;81.19;102355.91;5004146;28;20043;-78
2022/09/22 10:38:43;;;;;;;5.38;2.55;;;;;;;17.11;81.59;102358.59;5008608;28;20073;-78
2022/09/22 10:41:16;;;;;;;6.65;2.55;;;;;;;17.14;81.98;102361.25;4953462;28;20038;-77
2022/09/22 10:43:58;;;;;;;5.85;2.10;;;;;;;17.22;81.48;102357.69;4985584;28;20037;-78
2022/09/22 10:47:09;;;;;;;10.32;2.40;;;;;;;17.22;78.45;102361.25;4980998;28;20041;-78
2022/09/22 10:50:06;;;;;;;2.40;2.00;;;;;;;17.25;79.30;102363.03;4978976;28;20046;-77
2022/09/22 10:53:03;;;;;;;4.43;2.10;;;;;;;17.30;80.02;102359.47;4984417;28;20116;-77
2022/09/22 10:55:44;;;;;;;6.60;2.13;;;;;;;17.38;80.05;102351.47;4961953;28;20169;-77
2022/09/22 10:58:26;;;;;;;6.70;2.20;;;;;;;17.46;78.85;102344.34;4971102;28;20044;-78
2022/09/22 11:01:11;;;;;;;4.97;1.73;;;;;;;17.52;77.37;102347.00;4988215;28;20057;-77
2022/09/22 11:04:03;;;;;;;3.47;2.42;;;;;;;17.57;76.31;102346.13;4979058;28;20057;-76
2022/09/22 11:12:51;;;;;;;5.22;2.83;;;;;;;17.70;75.25;102343.41;4939513;28;20531;-76
2022/09/22 11:15:22;;;;;;;5.85;3.92;;;;;;;17.60;74.42;102343.41;4971535;28;20034;-77
2022/09/22 11:18:19;;;;;;;3.70;2.63;;;;;;;17.50;76.39;102338.13;4986692;28;20276;-77
2022/09/22 11:20:54;;;;;;;3.47;2.10;;;;;;;17.53;75.08;102326.56;4969413;28;20155;-77
2022/09/22 11:23:46;;;;;;;4.07;2.38;;;;;;;17.64;74.48;102330.09;4978978;28;20038;-79
2022/09/22 11:26:45;;;;;;;9.85;3.15;;;;;;;17.66;74.42;102338.09;4974431;28;20050;-79
2022/09/22 11:29:44;;;;;;;3.83;2.60;;;;;;;17.54;72.11;102323.91;4961363;28;20041;-79
2022/09/22 11:32:18;;;;;;;3.33;2.47;;;;;;;17.43;73.02;102325.72;4983653;28;20406;-77
2022/09/22 11:34:59;;;;;;;2.65;1.88;;;;;;;17.49;73.95;102319.47;4974775;28;20038;-78
2022/09/22 11:37:48;;;;;;;4.03;2.42;;;;;;;17.64;72.86;102311.44;4986371;28;20260;-78
2022/09/22 11:40:44;;;;;;;3.80;2.00;;;;;;;17.76;72.45;102307.84;4998711;28;20618;-78
2022/09/22 11:43:36;;;;;;;4.90;2.20;;;;;;;17.73;71.53;102308.75;4983374;28;20053;-78
2022/09/22 11:46:17;;;;;;;2.78;1.92;;;;;;;17.63;72.64;102306.09;4963929;28;20522;-77
2022/09/22 11:48:48;;;;;;;5.43;2.05;;;;;;;17.63;72.49;102300.78;4998029;28;20503;-78
2022/09/22 11:51:26;;;;;;;5.95;2.33;;;;;;;17.72;70.52;102292.75;4962820;28;20314;-78
2022/09/22 11:54:08;;;;;;;6.25;2.33;;;;;;;17.81;70.19;102290.06;4984232;28;20046;-77
2022/09/22 11:56:39;;;;;;;5.20;2.70;;;;;;;17.96;71.62;102288.22;4973088;28;20054;-78
2022/09/22 11:59:32;;;;;;;6.28;2.33;;;;;;;18.04;68.91;102289.09;4978332;28;20034;-79
2022/09/22 12:02:11;;;;;;;3.22;2.20;;;;;;;18.00;69.47;102295.34;4956581;28;20045;-78
2022/09/22 12:04:55;;;;;;;6.95;2.20;;;;;;;17.87;69.27;102287.38;4960046;28;20070;-78
2022/09/22 12:07:31;;;;;;;4.65;2.13;;;;;;;17.69;68.40;102288.34;4939951;28;20065;-77
2022/09/22 12:10:11;;;;;;;3.70;2.40;;;;;;;17.56;69.15;102291.94;4924130;28;20050;-77
2022/09/22 12:12:43;;;;;;;5.28;2.80;;;;;;;17.48;70.35;102294.59;4964816;28;20043;-78
2022/09/22 12:15:27;;;;;;;3.22;2.47;;;;;;;17.46;69.30;102279.50;4924431;28;20050;-78
2022/09/22 12:18:27;;;;;;;5.00;2.20;;;;;;;17.41;68.97;102292.84;4966216;28;20035;-77